Time;durP1;ratioP1;P1;durP2;ratioP2;P2;SDS_P1;SDS_P2;PMS_P1;PMS_P2;Temp;Humidity;BMP_temperature;BMP_pressure;BME280_temperature;BME280_humidity;BME280_pressure;Samples;Min_cycle;Max_cycle;Signal;HPM_P1;HPM_P2
2022/08/13 00:00:37;;;;;;;1.10;1.00;;;25.80;65.30;;;;;;6212690;22;44991;-60
2022/08/13 00:03:14;;;;;;;1.00;1.00;;;25.70;65.30;;;;;;6212314;22;43279;-60
2022/08/13 00:06:04;;;;;;;1.23;1.23;;;25.80;65.30;;;;;;6213873;22;43177;-60
2022/08/13 00:08:33;;;;;;;2.00;1.25;;;25.80;65.30;;;;;;6212818;22;43458;-60
2022/08/13 00:11:02;;;;;;;1.13;1.13;;;25.70;65.20;;;;;;6212430;22;45336;-60
2022/08/13 00:13:34;;;;;;;1.10;1.10;;;25.70;65.20;;;;;;6212946;22;43714;-60
2022/08/13 00:16:10;;;;;;;1.20;1.20;;;25.70;65.20;;;;;;6212325;22;43219;-60
2022/08/13 00:18:39;;;;;;;1.23;1.10;;;25.70;65.20;;;;;;6212897;22;43420;-62
2022/08/13 00:21:09;;;;;;;1.37;1.37;;;25.70;65.20;;;;;;6213278;22;43778;-60
2022/08/13 00:23:38;;;;;;;1.20;1.15;;;25.70;65.30;;;;;;6212601;22;43564;-60
2022/08/13 00:26:27;;;;;;;1.42;1.33;;;25.70;65.20;;;;;;6213122;22;43261;-60
2022/08/13 00:29:02;;;;;;;1.30;1.20;;;25.70;65.30;;;;;;6212769;22;43834;-60
2022/08/13 00:31:31;;;;;;;1.23;1.20;;;25.70;65.20;;;;;;6211988;22;43981;-60
2022/08/13 00:34:00;;;;;;;1.15;1.15;;;25.70;65.20;;;;;;6212980;22;43912;-60
2022/08/13 00:36:34;;;;;;;1.38;1.27;;;25.70;65.20;;;;;;6212850;22;43221;-60
2022/08/13 00:39:08;;;;;;;1.50;1.40;;;25.60;65.10;;;;;;6212181;22;43191;-60
2022/08/13 00:41:37;;;;;;;1.10;1.10;;;25.60;65.20;;;;;;6212891;22;44034;-60
2022/08/13 00:44:24;;;;;;;1.40;1.30;;;25.60;65.20;;;;;;6211436;22;43580;-60
2022/08/13 00:48:41;;;;;;;1.10;1.10;;;25.60;65.20;;;;;;6212959;22;43279;-60
2022/08/13 00:49:47;;;;;;;1.17;1.17;;;25.60;65.20;;;;;;6212624;22;43306;-60
2022/08/13 00:52:30;;;;;;;1.13;1.13;;;25.60;65.10;;;;;;6211908;22;44642;-60
2022/08/13 00:55:05;;;;;;;1.20;1.20;;;25.60;65.10;;;;;;6213159;22;44087;-60
2022/08/13 00:57:34;;;;;;;1.20;1.20;;;25.60;65.10;;;;;;6212745;22;43311;-60
2022/08/13 01:00:13;;;;;;;1.50;1.40;;;25.50;65.00;;;;;;6211615;22;43387;-60
2022/08/13 01:02:44;;;;;;;1.50;1.40;;;25.50;65.10;;;;;;6212573;22;44000;-60
2022/08/13 01:05:25;;;;;;;1.27;1.27;;;25.60;65.20;;;;;;6211889;22;43916;-61
2022/08/13 01:07:57;;;;;;;0.98;0.98;;;25.50;65.10;;;;;;6211130;22;43323;-62
2022/08/13 01:10:25;;;;;;;1.50;1.40;;;25.50;65.00;;;;;;6211793;22;43263;-60
2022/08/13 01:12:55;;;;;;;1.55;1.45;;;25.50;65.10;;;;;;6212113;22;44091;-60
2022/08/13 01:15:23;;;;;;;1.40;1.30;;;25.50;65.00;;;;;;6212664;22;43916;-60
2022/08/13 01:18:15;;;;;;;1.17;1.17;;;25.50;65.00;;;;;;6212932;22;43169;-60
2022/08/13 01:20:49;;;;;;;1.40;1.30;;;25.40;65.60;;;;;;6185618;22;43392;-60
2022/08/13 01:23:23;;;;;;;1.40;1.30;;;25.50;65.10;;;;;;6212974;22;44671;-61
2022/08/13 01:26:06;;;;;;;1.40;1.30;;;25.40;65.00;;;;;;6212797;22;43623;-60
2022/08/13 01:28:38;;;;;;;1.30;1.20;;;25.40;65.00;;;;;;6211428;22;43790;-60
2022/08/13 01:31:11;;;;;;;1.50;1.50;;;25.40;65.00;;;;;;6212358;22;43308;-60
2022/08/13 01:33:47;;;;;;;1.17;1.17;;;25.40;65.00;;;;;;6211839;22;44944;-60
2022/08/13 01:36:20;;;;;;;1.30;1.30;;;25.40;64.90;;;;;;6212438;22;44117;-60
2022/08/13 01:39:08;;;;;;;1.60;1.50;;;25.40;64.90;;;;;;6212775;22;43319;-60
2022/08/13 01:41:44;;;;;;;1.50;1.40;;;25.40;64.90;;;;;;6211819;22;43251;-61
2022/08/13 01:44:24;;;;;;;1.30;1.20;;;25.40;64.90;;;;;;6212376;22;44746;-60
2022/08/13 01:53:01;;;;;;;1.55;1.45;;;25.40;64.90;;;;;;6186059;22;43367;-60
2022/08/13 01:55:53;;;;;;;1.20;1.20;;;25.40;64.90;;;;;;6211712;22;43979;-60
2022/08/13 01:58:41;;;;;;;1.42;1.35;;;25.40;64.90;;;;;;6211765;22;43680;-60
2022/08/13 02:01:30;;;;;;;1.20;1.20;;;25.40;65.00;;;;;;6212065;22;43369;-60
2022/08/13 02:04:15;;;;;;;1.40;1.40;;;25.30;64.90;;;;;;6212509;22;43300;-60
2022/08/13 02:06:52;;;;;;;1.38;1.27;;;25.30;64.90;;;;;;6212240;22;44824;-60
2022/08/13 02:09:23;;;;;;;1.60;1.50;;;25.30;64.90;;;;;;6210885;22;43988;-60
2022/08/13 02:12:15;;;;;;;1.50;1.40;;;25.30;64.90;;;;;;6212412;22;43254;-60
2022/08/13 02:15:06;;;;;;;1.60;1.50;;;25.20;64.90;;;;;;6185948;22;43396;-60
2022/08/13 02:17:41;;;;;;;1.15;1.10;;;25.20;64.90;;;;;;6211364;22;44994;-60
2022/08/13 02:20:34;;;;;;;1.65;1.55;;;25.20;64.80;;;;;;6211983;22;43644;-60
2022/08/13 02:23:05;;;;;;;1.10;1.10;;;25.20;64.80;;;;;;6212772;22;43879;-61
2022/08/13 02:25:36;;;;;;;1.50;1.38;;;25.20;64.80;;;;;;6213662;22;43260;-60
2022/08/13 02:28:04;;;;;;;1.20;1.15;;;25.20;64.80;;;;;;6213348;22;43806;-60
2022/08/13 02:30:39;;;;;;;1.23;1.23;;;25.20;64.90;;;;;;6211640;22;43935;-60
2022/08/13 02:33:09;;;;;;;1.48;1.40;;;25.20;64.90;;;;;;6213502;22;43220;-60
2022/08/13 02:35:45;;;;;;;1.40;1.30;;;25.20;64.80;;;;;;6213450;22;43319;-62
2022/08/13 02:38:16;;;;;;;1.70;1.60;;;25.20;64.90;;;;;;6212401;22;44748;-60
2022/08/13 02:41:43;;;;;;;1.30;1.20;;;25.20;64.80;;;;;;6213295;22;43621;-60
2022/08/13 02:43:47;;;;;;;1.20;1.20;;;25.20;64.80;;;;;;6188452;22;43320;-60
2022/08/13 02:46:26;;;;;;;1.30;1.20;;;25.10;64.70;;;;;;6213459;22;43218;-60
2022/08/13 02:48:58;;;;;;;1.30;1.30;;;25.20;64.90;;;;;;6213246;22;44909;-60
2022/08/13 02:51:28;;;;;;;1.80;1.70;;;25.10;64.80;;;;;;6212460;22;43932;-60
2022/08/13 02:54:20;;;;;;;1.23;1.23;;;25.10;64.80;;;;;;6213402;22;43301;-60
2022/08/13 02:56:51;;;;;;;1.40;1.40;;;25.10;64.80;;;;;;6213602;22;43332;-60
2022/08/13 02:59:19;;;;;;;1.60;1.50;;;25.10;64.80;;;;;;6211810;22;43861;-60
2022/08/13 03:02:07;;;;;;;1.70;1.60;;;25.10;64.80;;;;;;6213396;22;43677;-60
2022/08/13 03:04:44;;;;;;;1.40;1.30;;;25.10;64.80;;;;;;6213502;22;43233;-60
2022/08/13 03:07:12;;;;;;;1.75;1.65;;;25.10;64.80;;;;;;6185767;22;43392;-60
2022/08/13 03:09:39;;;;;;;1.40;1.35;;;25.10;64.80;;;;;;6212620;22;44948;-60
2022/08/13 03:12:14;;;;;;;1.50;1.40;;;25.10;64.80;;;;;;6212452;22;43988;-60
2022/08/13 03:14:43;;;;;;;1.83;1.30;;;25.10;64.80;;;;;;6213545;22;43225;-60
2022/08/13 03:17:15;;;;;;;1.55;1.45;;;25.00;64.80;;;;;;6213854;22;43237;-61
2022/08/13 03:19:51;;;;;;;1.38;1.27;;;25.10;64.80;;;;;;6212195;22;45015;-61
2022/08/13 03:22:25;;;;;;;1.63;1.52;;;25.00;64.80;;;;;;6213228;22;43805;-61
2022/08/13 03:24:54;;;;;;;1.50;1.40;;;25.00;64.80;;;;;;6213906;22;43252;-61
2022/08/13 03:27:22;;;;;;;1.70;1.60;;;25.00;64.80;;;;;;6212732;22;43474;-60
2022/08/13 03:29:53;;;;;;;1.42;1.40;;;25.00;64.80;;;;;;6212710;22;43834;-60
2022/08/13 03:32:43;;;;;;;1.50;1.40;;;25.00;65.20;;;;;;6212741;22;43928;-60
2022/08/13 03:35:20;;;;;;;1.45;1.45;;;25.00;64.80;;;;;;6213055;22;43901;-60
2022/08/13 03:38:10;;;;;;;1.50;1.50;;;25.00;64.70;;;;;;6213556;22;43201;-60
2022/08/13 03:43:24;;;;;;;1.33;1.33;;;25.00;64.80;;;;;;6213252;22;43658;-62
2022/08/13 03:45:54;;;;;;;1.63;1.52;;;25.00;64.80;;;;;;6213417;22;43252;-60
2022/08/13 03:48:24;;;;;;;1.52;1.50;;;24.90;64.80;;;;;;6212509;22;43343;-60
2022/08/13 03:50:52;;;;;;;1.30;1.30;;;24.90;64.80;;;;;;6212690;22;44581;-60
2022/08/13 03:53:22;;;;;;;1.50;1.40;;;24.90;64.80;;;;;;6187314;22;43258;-60
2022/08/13 03:56:12;;;;;;;1.52;1.42;;;24.90;64.80;;;;;;6212634;22;43235;-60
2022/08/13 03:58:44;;;;;;;1.77;1.52;;;24.90;64.80;;;;;;6213155;22;43407;-60
2022/08/13 04:01:15;;;;;;;1.30;1.30;;;24.90;64.80;;;;;;6212502;22;43828;-60
2022/08/13 04:03:46;;;;;;;1.98;1.88;;;24.90;64.80;;;;;;6213193;22;43843;-61
2022/08/13 04:06:20;;;;;;;1.70;1.60;;;24.90;64.80;;;;;;6213404;22;43275;-61
2022/08/13 04:08:53;;;;;;;1.50;1.40;;;24.90;64.80;;;;;;6212835;22;43220;-60
2022/08/13 04:11:22;;;;;;;1.42;1.42;;;24.90;64.80;;;;;;6212915;22;43544;-62
2022/08/13 04:13:57;;;;;;;1.45;1.33;;;24.80;64.80;;;;;;6213232;22;43209;-61
2022/08/13 04:16:33;;;;;;;1.38;1.30;;;24.80;64.80;;;;;;6212090;22;43642;-61
2022/08/13 04:19:01;;;;;;;1.50;1.40;;;24.80;64.80;;;;;;6211878;22;43504;-60
2022/08/13 04:21:32;;;;;;;2.03;1.50;;;24.80;64.80;;;;;;6212926;22;44695;-60
2022/08/13 04:24:04;;;;;;;1.60;1.50;;;24.80;64.80;;;;;;6212491;22;43953;-60
2022/08/13 04:26:33;;;;;;;1.95;1.80;;;24.80;64.80;;;;;;6213053;22;43276;-61
2022/08/13 04:29:05;;;;;;;1.38;1.38;;;24.80;64.80;;;;;;6212934;22;43339;-60
2022/08/13 04:31:34;;;;;;;1.75;1.65;;;24.80;64.80;;;;;;6212151;22;44739;-60
2022/08/13 04:34:15;;;;;;;;;;;24.80;64.80;;;;;;6213850;22;43955;-60
2022/08/13 04:37:04;;;;;;;1.38;1.38;;;24.80;64.90;;;;;;6212824;22;43213;-60
2022/08/13 04:39:32;;;;;;;1.50;1.40;;;24.80;64.90;;;;;;6212713;22;43301;-60
2022/08/13 04:42:20;;;;;;;1.67;1.65;;;24.70;64.80;;;;;;6212803;22;43750;-61
2022/08/13 04:45:08;;;;;;;1.63;1.50;;;24.70;64.80;;;;;;6211452;22;43177;-60
2022/08/13 04:47:40;;;;;;;1.42;1.40;;;24.70;64.80;;;;;;6213145;22;43222;-60
2022/08/13 04:50:10;;;;;;;1.77;1.50;;;24.70;64.80;;;;;;6213295;22;43522;-60
2022/08/13 04:52:39;;;;;;;1.67;1.58;;;24.70;64.80;;;;;;6212017;22;44904;-60
2022/08/13 04:55:12;;;;;;;1.50;1.40;;;24.70;64.80;;;;;;6212951;22;43228;-60
2022/08/13 04:57:42;;;;;;;1.60;1.50;;;24.70;64.80;;;;;;6212507;22;43137;-60
2022/08/13 05:00:32;;;;;;;1.83;1.60;;;24.70;64.80;;;;;;6189612;22;43352;-60
2022/08/13 05:03:12;;;;;;;1.60;1.50;;;24.70;64.80;;;;;;6213066;22;43740;-60
2022/08/13 05:05:41;;;;;;;1.48;1.38;;;24.70;64.80;;;;;;6212083;22;44177;-60
2022/08/13 05:08:17;;;;;;;1.50;1.40;;;24.70;64.80;;;;;;6213024;22;43193;-60
2022/08/13 05:10:47;;;;;;;1.60;1.50;;;24.70;64.80;;;;;;6212817;22;43403;-60
2022/08/13 05:13:27;;;;;;;1.58;1.48;;;24.60;64.80;;;;;;6185399;22;44645;-60
2022/08/13 05:16:22;;;;;;;1.70;1.60;;;24.70;64.80;;;;;;5111696;27;43482;-60
2022/08/13 05:18:55;;;;;;;1.70;1.60;;;24.70;64.80;;;;;;5091027;27;43691;-60
2022/08/13 05:21:24;;;;;;;1.60;1.50;;;24.60;64.80;;;;;;5099457;27;43426;-60
2022/08/13 05:24:12;;;;;;;1.67;1.58;;;24.60;64.80;;;;;;5089374;27;43432;-61
2022/08/13 05:26:59;;;;;;;1.70;1.38;;;24.60;64.80;;;;;;5099083;27;44712;-60
2022/08/13 05:29:39;;;;;;;1.38;1.38;;;24.60;64.80;;;;;;5098931;27;43698;-60
2022/08/13 05:32:27;;;;;;;1.30;1.30;;;24.60;64.80;;;;;;5103243;27;43443;-60
2022/08/13 05:35:05;;;;;;;1.63;1.52;;;24.60;64.80;;;;;;5099306;27;43463;-61
2022/08/13 05:37:34;;;;;;;1.70;1.60;;;24.60;64.80;;;;;;5099242;27;43869;-60
2022/08/13 05:40:22;;;;;;;1.70;1.60;;;24.60;64.80;;;;;;5088325;27;43721;-60
2022/08/13 05:43:15;;;;;;;1.52;1.42;;;24.60;64.80;;;;;;5099328;27;43382;-60
2022/08/13 05:45:47;;;;;;;1.50;1.50;;;24.60;64.80;;;;;;5099527;27;43514;-61
2022/08/13 05:48:20;;;;;;;1.60;1.50;;;24.60;64.80;;;;;;5098544;27;44964;-60
2022/08/13 05:50:58;;;;;;;1.60;1.50;;;24.50;64.70;;;;;;5098290;27;43469;-60
2022/08/13 05:53:26;;;;;;;1.38;1.27;;;24.50;64.80;;;;;;5089826;27;43410;-60
2022/08/13 05:56:08;;;;;;;1.35;1.30;;;24.50;64.80;;;;;;5098966;27;43446;-61
2022/08/13 05:58:44;;;;;;;1.73;1.63;;;24.50;64.80;;;;;;5099132;27;44789;-60
2022/08/13 06:04:19;;;;;;;1.65;1.55;;;24.50;64.80;;;;;;5098098;27;43501;-62
2022/08/13 06:07:06;;;;;;;2.35;1.60;;;24.50;64.90;;;;;;5098920;27;43443;-61
2022/08/13 06:09:33;;;;;;;1.73;1.63;;;24.50;65.00;;;;;;5097347;27;44065;-61
2022/08/13 06:12:04;;;;;;;1.60;1.50;;;24.50;64.90;;;;;;5098340;27;43511;-61
2022/08/13 06:14:41;;;;;;;1.80;1.70;;;24.50;64.90;;;;;;5097219;27;43457;-61
2022/08/13 06:17:22;;;;;;;1.40;1.40;;;24.50;64.90;;;;;;5098889;27;43655;-61
2022/08/13 06:19:51;;;;;;;2.10;2.00;;;24.40;64.80;;;;;;5098108;27;45582;-61
2022/08/13 06:22:22;;;;;;;;;;;24.40;64.80;;;;;;5098426;27;43758;-61
2022/08/13 06:24:51;;;;;;;1.90;1.80;;;24.40;64.90;;;;;;5093723;27;43542;-61
2022/08/13 06:27:24;;;;;;;1.85;1.75;;;24.40;64.90;;;;;;5077776;27;43404;-61
2022/08/13 06:30:17;;;;;;;2.05;1.70;;;24.40;64.90;;;;;;5080678;28;44167;-61
2022/08/13 06:33:01;;;;;;;1.55;1.50;;;24.40;64.80;;;;;;5088068;27;43915;-61
2022/08/13 06:36:10;;;;;;;1.60;1.50;;;24.40;64.90;;;;;;5084867;27;43490;-61
2022/08/13 06:38:51;;;;;;;1.73;1.63;;;24.40;64.80;;;;;;5072801;28;43482;-61
2022/08/13 06:41:20;;;;;;;2.25;1.60;;;24.40;64.80;;;;;;5084112;28;43803;-60
2022/08/13 06:43:52;;;;;;;1.70;1.60;;;24.40;64.80;;;;;;5084224;27;44105;-61
2022/08/13 06:46:31;;;;;;;1.60;1.50;;;24.40;64.80;;;;;;5084126;28;43437;-61
2022/08/13 06:49:00;;;;;;;1.40;1.40;;;24.40;64.80;;;;;;5083520;28;43668;-60
2022/08/13 06:51:33;;;;;;;1.63;1.50;;;24.40;64.80;;;;;;5082608;27;44961;-60
2022/08/13 06:54:08;;;;;;;2.03;1.42;;;24.40;64.70;;;;;;5082177;27;43719;-61
2022/08/13 06:56:57;;;;;;;1.70;1.60;;;24.40;64.70;;;;;;5076454;28;43402;-61
2022/08/13 06:59:40;;;;;;;1.30;1.30;;;24.40;64.70;;;;;;5083151;28;43641;-60
2022/08/13 07:02:32;;;;;;;1.67;1.58;;;24.40;64.60;;;;;;5082664;28;45049;-60
2022/08/13 07:05:00;;;;;;;1.75;1.65;;;24.50;64.60;;;;;;5084000;27;43894;-60
2022/08/13 07:07:44;;;;;;;1.73;1.63;;;24.40;64.50;;;;;;5080205;28;43449;-60
2022/08/13 07:10:15;;;;;;;1.67;1.58;;;24.40;64.40;;;;;;5079233;28;43460;-60
2022/08/13 07:12:43;;;;;;;1.60;1.50;;;24.40;64.40;;;;;;5082710;27;44316;-60
2022/08/13 07:15:14;;;;;;;1.65;1.42;;;24.40;64.40;;;;;;5082889;28;43507;-61
2022/08/13 07:17:51;;;;;;;1.65;1.55;;;24.40;64.40;;;;;;5084141;28;43446;-62
2022/08/13 07:20:20;;;;;;;1.75;1.63;;;24.40;64.40;;;;;;5082731;27;43604;-62
2022/08/13 07:22:52;;;;;;;1.57;1.47;;;24.40;64.40;;;;;;5084036;27;44992;-60
2022/08/13 07:25:41;;;;;;;1.63;1.52;;;24.40;64.40;;;;;;5082452;28;43400;-60
2022/08/13 07:28:30;;;;;;;1.70;1.60;;;24.40;64.50;;;;;;5077376;28;43352;-61
2022/08/13 07:31:16;;;;;;;1.65;1.55;;;24.40;64.40;;;;;;5082775;27;43517;-61
2022/08/13 07:33:51;;;;;;;1.30;1.30;;;24.40;64.40;;;;;;5070492;28;44233;-62
2022/08/13 07:36:29;;;;;;;1.70;1.60;;;24.40;64.50;;;;;;5083570;28;43401;-60
2022/08/13 07:39:00;;;;;;;1.75;1.58;;;24.40;64.40;;;;;;5082256;27;43417;-61
2022/08/13 07:41:43;;;;;;;1.83;1.73;;;24.40;64.40;;;;;;5083696;27;43526;-61
2022/08/13 07:44:30;;;;;;;1.80;1.70;;;24.40;64.50;;;;;;5083026;27;44210;-62
2022/08/13 07:47:21;;;;;;;1.70;1.60;;;24.40;64.30;;;;;;5076964;28;43520;-62
2022/08/13 07:49:56;;;;;;;1.65;1.55;;;24.40;64.00;;;;;;5075711;28;43496;-62
2022/08/13 07:52:27;;;;;;;1.67;1.60;;;24.50;64.10;;;;;;5077967;28;43435;-62
2022/08/13 07:55:00;;;;;;;1.70;1.60;;;24.40;64.20;;;;;;5077527;27;44178;-62
2022/08/13 07:57:31;;;;;;;;;;;24.50;64.10;;;;;;5076528;28;43590;-62
2022/08/13 08:00:09;;;;;;;1.75;1.65;;;24.50;64.20;;;;;;5077510;28;43590;-61
2022/08/13 08:02:44;;;;;;;3.47;1.63;;;24.50;64.20;;;;;;5078038;28;43530;-62
2022/08/13 08:05:14;;;;;;;1.85;1.60;;;24.50;64.30;;;;;;5078206;28;44162;-61
2022/08/13 08:07:50;;;;;;;2.47;1.60;;;24.50;64.30;;;;;;5078135;27;44113;-61
2022/08/13 08:10:35;;;;;;;1.85;1.52;;;24.50;64.20;;;;;;5077317;28;43654;-61
2022/08/13 08:13:02;;;;;;;1.85;1.75;;;24.50;64.20;;;;;;5078663;28;43445;-61
2022/08/13 08:15:30;;;;;;;2.47;1.60;;;24.50;64.10;;;;;;5075977;28;45947;-61
2022/08/13 08:18:17;;;;;;;1.70;1.60;;;24.50;64.10;;;;;;5077623;28;43445;-61
2022/08/13 08:21:07;;;;;;;2.50;1.73;;;24.50;64.10;;;;;;5075865;28;43553;-61
2022/08/13 08:23:58;;;;;;;1.40;1.30;;;24.50;64.10;;;;;;5078630;28;43504;-62
2022/08/13 08:26:33;;;;;;;2.97;1.67;;;24.50;64.00;;;;;;5076535;28;43778;-61
2022/08/13 08:29:09;;;;;;;2.30;1.70;;;24.60;64.10;;;;;;5076447;28;43454;-61
2022/08/13 08:31:41;;;;;;;1.80;1.70;;;24.60;64.00;;;;;;5077324;28;43561;-61
2022/08/13 08:34:29;;;;;;;2.35;1.40;;;24.60;64.00;;;;;;5077646;28;43541;-61
2022/08/13 08:36:57;;;;;;;1.73;1.58;;;24.60;64.10;;;;;;5077226;27;43844;-61
2022/08/13 08:42:38;;;;;;;1.60;1.50;;;24.60;63.90;;;;;;5082785;28;43431;-61
2022/08/13 08:45:27;;;;;;;2.57;1.60;;;24.60;64.10;;;;;;5082802;28;43438;-61
2022/08/13 08:48:18;;;;;;;2.40;1.50;;;24.60;64.10;;;;;;5081710;27;44939;-61
2022/08/13 08:50:54;;;;;;;1.40;1.33;;;24.60;64.10;;;;;;5081439;28;43477;-61
2022/08/13 08:53:26;;;;;;;1.63;1.58;;;24.60;64.10;;;;;;5082864;28;43452;-62
2022/08/13 08:56:16;;;;;;;1.38;1.30;;;24.60;64.10;;;;;;5069058;28;43494;-61
2022/08/13 08:58:43;;;;;;;1.70;1.60;;;24.60;64.10;;;;;;5081723;27;43933;-61
2022/08/13 09:01:11;;;;;;;1.88;1.30;;;24.60;64.00;;;;;;5082033;27;43410;-61
2022/08/13 09:03:46;;;;;;;1.65;1.48;;;24.70;64.10;;;;;;5081593;27;43528;-61
2022/08/13 09:06:26;;;;;;;1.67;1.58;;;24.70;64.00;;;;;;5072015;28;43430;-61
2022/08/13 09:09:14;;;;;;;1.80;1.50;;;24.70;63.90;;;;;;5082072;27;44707;-61
2022/08/13 09:11:45;;;;;;;1.50;1.40;;;24.70;63.90;;;;;;5080321;27;43549;-61
2022/08/13 09:14:22;;;;;;;1.70;1.60;;;24.70;63.90;;;;;;5081294;28;43407;-61
2022/08/13 09:16:50;;;;;;;1.50;1.40;;;24.70;63.80;;;;;;5082412;27;43521;-61
2022/08/13 09:19:19;;;;;;;1.95;1.50;;;24.70;63.80;;;;;;5081010;28;43940;-61
2022/08/13 09:22:06;;;;;;;1.50;1.40;;;24.70;63.70;;;;;;5079699;28;45689;-61
2022/08/13 09:24:39;;;;;;;2.13;1.48;;;24.80;63.80;;;;;;5082370;27;43407;-61
2022/08/13 09:27:11;;;;;;;1.92;1.52;;;24.80;63.80;;;;;;5082244;27;43416;-61
2022/08/13 09:29:39;;;;;;;2.38;1.40;;;24.80;63.80;;;;;;5081859;28;43797;-61
2022/08/13 09:32:21;;;;;;;2.20;1.80;;;24.80;63.80;;;;;;5076624;27;43764;-61
2022/08/13 09:35:01;;;;;;;2.58;1.60;;;24.80;63.80;;;;;;5079981;28;43434;-61
2022/08/13 09:37:30;;;;;;;1.60;1.50;;;24.80;63.80;;;;;;5073662;28;43597;-62
2022/08/13 09:40:22;;;;;;;1.58;1.40;;;24.80;63.70;;;;;;5079611;27;44165;-61
2022/08/13 09:43:39;;;;;;;2.45;1.60;;;24.90;63.70;;;;;;5081842;28;43408;-61
2022/08/13 09:46:23;;;;;;;2.95;1.40;;;24.90;63.70;;;;;;5081594;27;43391;-61
2022/08/13 09:48:57;;;;;;;3.20;1.90;;;24.90;63.70;;;;;;5081306;27;43490;-61
2022/08/13 09:51:33;;;;;;;2.97;1.58;;;24.90;63.80;;;;;;5080603;28;44973;-61
2022/08/13 09:54:22;;;;;;;2.85;1.67;;;24.90;63.70;;;;;;5081165;27;43913;-61
2022/08/13 09:56:58;;;;;;;1.90;1.60;;;24.90;63.70;;;;;;5082257;27;43486;-61
2022/08/13 09:59:29;;;;;;;1.90;1.20;;;24.90;63.60;;;;;;5081623;27;43501;-61
2022/08/13 10:02:09;;;;;;;2.72;1.60;;;25.00;63.70;;;;;;5081900;27;44354;-62
2022/08/13 10:04:43;;;;;;;1.98;1.42;;;24.90;63.60;;;;;;5077097;28;44025;-61
2022/08/13 10:07:14;;;;;;;2.13;1.52;;;25.00;63.60;;;;;;5084909;27;43486;-61
2022/08/13 10:09:48;;;;;;;2.30;1.50;;;25.00;63.60;;;;;;5083165;27;43443;-62
2022/08/13 10:12:36;;;;;;;1.40;1.30;;;25.00;63.50;;;;;;5081030;28;44707;-61
2022/08/13 10:15:08;;;;;;;1.38;1.23;;;25.00;63.50;;;;;;5084137;27;43414;-61
2022/08/13 10:17:55;;;;;;;1.60;1.50;;;25.00;63.40;;;;;;5084456;28;43397;-61
2022/08/13 10:20:36;;;;;;;1.80;1.55;;;25.10;63.50;;;;;;5084612;28;43497;-61
2022/08/13 10:23:06;;;;;;;1.50;1.40;;;25.10;63.50;;;;;;5084318;28;44141;-62
2022/08/13 10:25:37;;;;;;;2.05;1.50;;;25.10;63.50;;;;;;5085293;27;43416;-61
2022/08/13 10:28:24;;;;;;;2.85;1.50;;;25.10;63.40;;;;;;5070952;27;43435;-61
2022/08/13 10:31:03;;;;;;;1.70;1.40;;;25.10;63.40;;;;;;5084517;27;43408;-61
2022/08/13 10:33:54;;;;;;;2.67;1.70;;;25.10;63.40;;;;;;5078877;28;44132;-61
2022/08/13 10:36:25;;;;;;;1.83;1.60;;;25.10;63.40;;;;;;5083949;28;43499;-61
2022/08/13 10:39:03;;;;;;;1.70;1.60;;;25.10;63.40;;;;;;5084884;28;43486;-61
2022/08/13 10:41:41;;;;;;;3.80;2.10;;;25.20;63.50;;;;;;5077665;28;43438;-62
2022/08/13 10:44:29;;;;;;;2.72;1.70;;;25.20;63.40;;;;;;5075134;28;43766;-62
2022/08/13 10:46:59;;;;;;;1.70;1.45;;;25.20;64.10;;;;;;5079837;27;43521;-61
2022/08/13 10:49:29;;;;;;;1.88;1.75;;;25.30;63.50;;;;;;5077371;28;43467;-58
2022/08/13 10:52:00;;;;;;;1.95;1.85;;;25.30;63.40;;;;;;5078150;28;43615;-62
2022/08/13 10:54:33;;;;;;;2.35;1.80;;;25.40;63.60;;;;;;5078157;28;44518;-62
2022/08/13 10:57:07;;;;;;;4.68;1.90;;;25.40;63.30;;;;;;5078460;28;44285;-62
2022/08/13 10:59:41;;;;;;;2.70;1.77;;;25.40;63.10;;;;;;5079302;28;43423;-61
2022/08/13 11:02:09;;;;;;;2.92;2.05;;;25.40;63.00;;;;;;5078861;28;43545;-62
2022/08/13 11:04:45;;;;;;;2.17;1.70;;;25.40;63.00;;;;;;5078144;28;43809;-63
2022/08/13 11:07:20;;;;;;;1.90;1.80;;;25.40;62.80;;;;;;5079693;27;43460;-61
2022/08/13 11:09:49;;;;;;;6.38;2.17;;;25.50;62.90;;;;;;5078887;28;43430;-61
2022/08/13 11:12:18;;;;;;;1.90;1.80;;;25.50;62.80;;;;;;5078973;27;43550;-61
2022/08/13 11:14:52;;;;;;;1.80;1.70;;;25.50;62.90;;;;;;5078242;27;44109;-61
2022/08/13 11:17:20;;;;;;;3.10;1.70;;;25.50;62.90;;;;;;5077672;27;43898;-61
2022/08/13 11:20:13;;;;;;;2.13;1.90;;;25.60;63.00;;;;;;5077814;27;43498;-62
2022/08/13 11:22:46;;;;;;;2.35;1.83;;;25.60;62.90;;;;;;5078593;28;43579;-61
2022/08/13 11:25:17;;;;;;;2.90;1.80;;;25.70;62.90;;;;;;5076309;28;44889;-62
2022/08/13 11:28:12;;;;;;;3.17;1.85;;;25.70;62.80;;;;;;5079562;28;44037;-62
2022/08/13 11:30:46;;;;;;;2.05;1.90;;;25.70;62.70;;;;;;5078480;28;43494;-61
2022/08/13 11:33:17;;;;;;;2.15;1.85;;;25.70;62.70;;;;;;5078962;28;43572;-61
2022/08/13 11:35:45;;;;;;;2.28;2.00;;;25.70;62.70;;;;;;5082301;28;44032;-61
2022/08/13 11:38:18;;;;;;;2.13;1.92;;;25.70;62.70;;;;;;5080810;27;43589;-61
2022/08/13 11:40:49;;;;;;;1.77;1.60;;;25.80;62.70;;;;;;5083137;28;43457;-62
2022/08/13 11:43:22;;;;;;;2.78;1.85;;;25.90;62.70;;;;;;5083372;28;43561;-61
2022/08/13 11:46:10;;;;;;;3.03;1.77;;;25.90;62.70;;;;;;5082985;27;43799;-63
2022/08/13 11:48:43;;;;;;;2.20;2.00;;;25.90;62.60;;;;;;5083359;28;43972;-61
2022/08/13 11:51:31;;;;;;;1.88;1.77;;;25.90;62.40;;;;;;5071110;28;43581;-61
2022/08/13 11:54:19;;;;;;;2.50;1.98;;;25.90;62.30;;;;;;5080892;28;43669;-61
2022/08/13 11:57:01;;;;;;;2.05;1.60;;;25.90;62.20;;;;;;5081718;28;43864;-62
2022/08/13 11:59:29;;;;;;;2.13;1.83;;;26.00;62.10;;;;;;5082598;27;43565;-61
2022/08/13 12:02:09;;;;;;;1.90;1.80;;;26.00;62.20;;;;;;5082014;28;44077;-61
2022/08/13 12:04:43;;;;;;;2.20;1.90;;;26.00;62.10;;;;;;5082434;28;43410;-61
2022/08/13 12:07:16;;;;;;;3.35;1.85;;;26.10;62.20;;;;;;5082639;28;44807;-61
2022/08/13 12:09:43;;;;;;;3.17;2.10;;;26.10;62.30;;;;;;5083287;28;43744;-63
2022/08/13 12:12:17;;;;;;;2.92;2.08;;;26.10;62.30;;;;;;5083005;27;43418;-61
2022/08/13 12:14:50;;;;;;;3.03;1.77;;;26.10;62.30;;;;;;5081714;28;43467;-61
2022/08/13 12:17:18;;;;;;;4.70;1.92;;;26.10;62.30;;;;;;5082815;27;44983;-61
2022/08/13 12:20:10;;;;;;;1.98;1.80;;;26.10;62.20;;;;;;5082618;27;43454;-61
2022/08/13 12:22:51;;;;;;;2.33;1.77;;;26.20;62.20;;;;;;5069399;28;43460;-61
2022/08/13 12:25:21;;;;;;;2.10;1.90;;;26.20;62.30;;;;;;5082673;27;43455;-62
2022/08/13 12:28:20;;;;;;;2.92;1.67;;;26.20;62.30;;;;;;5082541;27;43819;-61
2022/08/13 12:31:00;;;;;;;2.55;1.65;;;26.20;62.20;;;;;;5072256;27;43721;-61
2022/08/13 12:33:34;;;;;;;2.28;1.80;;;26.30;62.20;;;;;;5086926;27;43440;-61
2022/08/13 12:36:08;;;;;;;3.20;1.77;;;26.30;62.20;;;;;;5082439;27;44052;-62
2022/08/13 12:38:36;;;;;;;1.90;1.80;;;26.30;62.20;;;;;;5082646;27;45140;-62
2022/08/13 12:41:04;;;;;;;2.45;1.77;;;26.30;62.20;;;;;;5082249;27;44031;-61
2022/08/13 12:43:47;;;;;;;1.95;1.60;;;26.40;62.30;;;;;;5082576;27;43423;-61
2022/08/13 12:46:35;;;;;;;2.08;1.73;;;26.40;62.10;;;;;;5078914;28;43420;-61
2022/08/13 12:49:04;;;;;;;1.73;1.63;;;26.40;62.20;;;;;;5072152;28;45314;-61
2022/08/13 12:51:41;;;;;;;1.58;1.48;;;26.40;62.20;;;;;;5080569;28;43945;-61
2022/08/13 12:54:24;;;;;;;1.60;1.50;;;26.40;62.20;;;;;;5081241;28;43406;-61
2022/08/13 12:57:11;;;;;;;1.85;1.65;;;26.40;62.10;;;;;;5081983;27;43462;-61
2022/08/13 12:59:59;;;;;;;1.40;1.30;;;26.50;62.30;;;;;;5082494;27;44704;-61
2022/08/13 13:02:33;;;;;;;1.80;1.55;;;26.50;62.20;;;;;;5082234;27;43693;-61
2022/08/13 13:05:02;;;;;;;1.85;1.70;;;26.50;62.10;;;;;;5082292;27;43400;-61
2022/08/13 13:07:47;;;;;;;1.67;1.58;;;26.50;62.00;;;;;;5080813;28;43541;-61
2022/08/13 13:10:37;;;;;;;1.67;1.38;;;26.60;62.10;;;;;;5080967;27;44080;-61
2022/08/13 13:13:07;;;;;;;1.83;1.70;;;26.60;62.10;;;;;;5082426;27;44081;-62
2022/08/13 13:15:56;;;;;;;1.70;1.60;;;26.60;62.00;;;;;;5071486;28;43548;-61
2022/08/13 13:18:44;;;;;;;2.15;1.40;;;26.70;62.10;;;;;;5081818;27;43492;-61
2022/08/13 13:21:28;;;;;;;1.77;1.58;;;26.70;61.90;;;;;;5081953;27;44135;-61
2022/08/13 13:24:08;;;;;;;1.60;1.50;;;26.70;61.90;;;;;;5081607;27;43383;-61
2022/08/13 13:26:52;;;;;;;1.50;1.40;;;26.70;61.70;;;;;;5082373;27;44032;-61
2022/08/13 13:29:36;;;;;;;1.35;1.30;;;26.80;61.90;;;;;;5081926;27;43535;-61
2022/08/13 13:32:13;;;;;;;1.92;1.60;;;26.80;61.80;;;;;;5076034;27;43798;-62
2022/08/13 13:35:02;;;;;;;1.67;1.58;;;26.80;61.70;;;;;;5081092;27;43703;-61
2022/08/13 13:37:49;;;;;;;1.50;1.40;;;26.80;61.70;;;;;;5081300;28;43443;-61
2022/08/13 13:40:44;;;;;;;1.77;1.60;;;26.80;61.80;;;;;;5085213;28;43514;-61
2022/08/13 13:43:14;;;;;;;2.45;1.90;;;26.90;61.90;;;;;;5085424;27;44647;-61
2022/08/13 13:45:58;;;;;;;1.35;1.35;;;26.90;61.80;;;;;;5084977;27;43489;-61
2022/08/13 13:48:40;;;;;;;1.50;1.40;;;26.90;61.70;;;;;;5085624;27;43481;-61
2022/08/13 13:51:14;;;;;;;1.70;1.60;;;26.90;61.70;;;;;;5084390;28;43556;-61
2022/08/13 13:53:47;;;;;;;1.58;1.48;;;27.00;61.80;;;;;;5084901;27;43877;-62